createdAt,value
2023-01-07T00:01:27.289Z,9.93
2023-01-07T00:04:30.308Z,9.73
2023-01-07T00:07:34.748Z,9.70
2023-01-07T00:10:37.697Z,9.37
2023-01-07T00:13:40.715Z,9.27
2023-01-07T00:16:44.054Z,9.30
2023-01-07T00:19:46.948Z,8.57
2023-01-07T00:22:52.828Z,9.17
2023-01-07T00:26:01.725Z,8.90
2023-01-07T00:29:06.064Z,8.63
2023-01-07T00:32:09.103Z,9.50
2023-01-07T00:35:23.228Z,9.33
2023-01-07T00:38:27.647Z,8.93
2023-01-07T00:41:30.668Z,8.63
2023-01-07T00:44:34.668Z,8.27
2023-01-07T00:47:37.614Z,8.17
2023-01-07T00:50:40.806Z,8.07
2023-01-07T00:53:45.078Z,8.40
2023-01-07T00:56:47.965Z,8.37
2023-01-07T00:59:51.034Z,7.60
2023-01-07T01:02:54.681Z,7.80
2023-01-07T01:06:03.071Z,7.70
2023-01-07T01:09:07.369Z,8.00
2023-01-07T01:12:10.366Z,8.37
2023-01-07T01:15:15.834Z,8.10
2023-01-07T01:18:18.894Z,7.47
2023-01-07T01:21:21.815Z,7.73
2023-01-07T01:24:26.148Z,7.60
2023-01-07T01:27:31.386Z,7.33
2023-01-07T01:30:34.324Z,7.80
2023-01-07T01:33:37.537Z,7.30
2023-01-07T01:36:40.588Z,7.37
2023-01-07T01:39:45.073Z,6.40
2023-01-07T01:42:48.007Z,7.10
2023-01-07T01:45:51.031Z,6.73
2023-01-07T01:48:57.523Z,7.93
2023-01-07T01:52:06.011Z,6.83
2023-01-07T01:55:12.285Z,7.20
2023-01-07T01:58:18.072Z,7.20
2023-01-07T02:01:21.172Z,7.07
2023-01-07T02:04:27.221Z,6.83
2023-01-07T02:07:30.145Z,7.10
2023-01-07T02:10:35.142Z,7.23
2023-01-07T02:13:49.798Z,6.77
2023-01-07T02:17:00.109Z,6.40
2023-01-07T02:20:26.333Z,6.53
2023-01-07T02:24:20.308Z,6.53
2023-01-07T02:27:36.977Z,6.80
2023-01-07T02:31:15.628Z,7.80
2023-01-07T02:34:26.406Z,7.30
2023-01-07T02:37:38.550Z,7.30
2023-01-07T02:40:51.667Z,8.70
2023-01-07T02:44:02.723Z,9.13
2023-01-07T02:47:13.100Z,8.73
2023-01-07T02:50:17.448Z,8.83
2023-01-07T02:53:21.518Z,9.20
2023-01-07T02:56:35.542Z,8.80
2023-01-07T03:00:03.782Z,8.27
2023-01-07T03:03:16.828Z,9.30
2023-01-07T03:06:38.353Z,8.83
2023-01-07T03:09:50.396Z,9.30
2023-01-07T03:12:57.498Z,8.73
2023-01-07T03:16:06.683Z,9.10
2023-01-07T03:19:13.663Z,9.40
2023-01-07T03:22:20.739Z,9.10
2023-01-07T03:25:25.251Z,10.73
2023-01-07T03:28:31.971Z,9.77
2023-01-07T03:31:36.820Z,9.73
2023-01-07T03:34:40.659Z,11.13
2023-01-07T03:37:46.330Z,9.83
2023-01-07T03:40:49.773Z,10.23
2023-01-07T03:43:52.108Z,10.70
2023-01-07T03:46:55.466Z,11.10
2023-01-07T03:49:58.420Z,10.90
2023-01-07T03:53:02.725Z,12.07
2023-01-07T03:56:06.142Z,11.57
2023-01-07T03:59:09.263Z,10.93
2023-01-07T04:02:12.347Z,12.40
2023-01-07T04:05:15.342Z,12.10
2023-01-07T04:08:19.674Z,12.00
2023-01-07T04:11:22.660Z,12.50
2023-01-07T04:14:25.644Z,10.43
2023-01-07T04:17:28.646Z,12.40
2023-01-07T04:20:32.221Z,12.37
2023-01-07T04:23:36.485Z,12.20
2023-01-07T04:26:39.658Z,11.07
2023-01-07T04:29:42.698Z,10.67
2023-01-07T04:32:45.636Z,13.10
2023-01-07T04:35:48.651Z,11.50
2023-01-07T04:38:52.903Z,12.77
2023-01-07T04:41:55.836Z,13.33
2023-01-07T04:44:58.751Z,14.13
2023-01-07T04:48:01.743Z,14.47
2023-01-07T04:51:04.881Z,13.93
2023-01-07T04:54:09.239Z,14.30
2023-01-07T04:57:12.186Z,14.07
2023-01-07T05:00:15.798Z,13.87
2023-01-07T05:03:19.884Z,12.80
2023-01-07T05:06:22.818Z,13.03
2023-01-07T05:09:27.183Z,12.70
2023-01-07T05:12:30.025Z,13.03
2023-01-07T05:15:32.998Z,11.93
2023-01-07T05:18:35.936Z,11.10
2023-01-07T05:21:39.212Z,11.60
2023-01-07T05:24:43.582Z,13.20
2023-01-07T05:27:46.547Z,12.57
2023-01-07T05:30:49.578Z,12.53
2023-01-07T05:33:52.619Z,12.77
2023-01-07T05:36:55.652Z,12.07
2023-01-07T05:39:59.895Z,11.07
2023-01-07T05:43:02.872Z,10.40
2023-01-07T05:46:06.182Z,11.27
2023-01-07T05:49:09.230Z,12.80
2023-01-07T05:52:12.204Z,12.77
2023-01-07T05:55:16.624Z,12.03
2023-01-07T05:58:19.519Z,10.03
2023-01-07T06:01:22.540Z,10.33
2023-01-07T06:04:25.534Z,13.97
2023-01-07T06:07:28.798Z,14.10
2023-01-07T06:10:33.198Z,13.77
2023-01-07T06:13:36.329Z,14.43
2023-01-07T06:16:39.357Z,11.97
2023-01-07T06:19:42.365Z,11.53
2023-01-07T06:22:45.329Z,11.97
2023-01-07T06:25:49.642Z,14.57
2023-01-07T06:28:52.812Z,15.57
2023-01-07T06:31:55.740Z,14.50
2023-01-07T06:34:58.675Z,15.27
2023-01-07T06:38:02.081Z,13.60
2023-01-07T06:41:06.632Z,13.27
2023-01-07T06:44:09.716Z,13.30
2023-01-07T06:47:12.671Z,13.53
2023-01-07T06:50:15.767Z,12.73
2023-01-07T06:53:18.658Z,14.17
2023-01-07T06:56:22.949Z,12.27
2023-01-07T06:59:25.856Z,12.63
2023-01-07T07:02:29.862Z,11.20
2023-01-07T07:05:32.906Z,11.03
2023-01-07T07:08:35.861Z,10.90
2023-01-07T07:11:40.165Z,11.07
2023-01-07T07:14:43.148Z,10.47
2023-01-07T07:17:46.750Z,11.00
2023-01-07T07:20:50.264Z,10.37
2023-01-07T07:23:53.295Z,11.30
2023-01-07T07:26:57.973Z,10.67
2023-01-07T07:30:00.923Z,10.17
2023-01-07T07:33:04.312Z,10.03
2023-01-07T07:36:07.960Z,10.53
2023-01-07T07:39:12.245Z,12.00
2023-01-07T07:42:16.584Z,12.00
2023-01-07T07:45:19.774Z,11.10
2023-01-07T07:48:22.775Z,12.23
2023-01-07T07:51:25.811Z,11.43
2023-01-07T07:54:28.931Z,11.57
2023-01-07T07:57:33.219Z,15.37
2023-01-07T08:00:36.169Z,12.43
2023-01-07T08:03:39.251Z,11.27
2023-01-07T08:06:42.292Z,10.67
2023-01-07T08:09:45.260Z,11.13
2023-01-07T08:12:50.499Z,10.73
2023-01-07T08:15:53.543Z,10.47
2023-01-07T08:18:56.519Z,10.57
2023-01-07T08:21:59.430Z,11.07
2023-01-07T08:25:02.906Z,10.30
2023-01-07T08:28:07.432Z,9.70
2023-01-07T08:31:11.075Z,15.17
2023-01-07T08:34:14.041Z,12.83
2023-01-07T08:37:16.976Z,9.63
2023-01-07T08:40:20.076Z,9.90
2023-01-07T08:43:24.977Z,9.70
2023-01-07T08:46:27.979Z,10.00
2023-01-07T08:49:30.894Z,9.90
2023-01-07T08:52:33.839Z,9.13
2023-01-07T08:55:36.774Z,9.57
2023-01-07T08:58:41.103Z,8.50
2023-01-07T09:01:44.162Z,8.57
2023-01-07T09:04:47.294Z,8.53
2023-01-07T09:07:53.264Z,8.93
2023-01-07T09:10:56.295Z,9.77
2023-01-07T09:14:00.627Z,8.67
2023-01-07T09:17:03.549Z,7.23
2023-01-07T09:20:07.754Z,7.80
2023-01-07T09:23:10.729Z,7.37
2023-01-07T09:26:13.756Z,7.73
2023-01-07T09:29:18.362Z,7.23
2023-01-07T09:32:21.411Z,7.50
2023-01-07T09:35:24.385Z,7.80
2023-01-07T09:38:27.449Z,8.40
2023-01-07T09:41:39.190Z,7.70
2023-01-07T09:44:55.192Z,7.50
2023-01-07T09:48:00.868Z,7.53
2023-01-07T09:51:07.832Z,7.20
2023-01-07T09:54:26.843Z,7.13
2023-01-07T09:57:29.861Z,7.80
2023-01-07T10:00:36.836Z,7.53
2023-01-07T10:03:52.416Z,7.30
2023-01-07T10:07:02.948Z,7.50
2023-01-07T10:10:15.808Z,7.87
2023-01-07T10:13:54.436Z,6.80
2023-01-07T10:17:07.570Z,7.77
2023-01-07T10:20:19.240Z,7.23
2023-01-07T10:23:26.026Z,8.07
2023-01-07T10:26:36.948Z,7.00
2023-01-07T10:29:44.638Z,7.57
2023-01-07T10:32:54.722Z,7.33
2023-01-07T10:36:05.037Z,7.30
2023-01-07T10:39:23.669Z,7.47
2023-01-07T10:42:33.702Z,7.43
2023-01-07T10:45:55.970Z,6.87
2023-01-07T10:49:20.865Z,6.83
2023-01-07T10:52:33.021Z,5.80
2023-01-07T10:55:44.403Z,5.73
2023-01-07T10:58:49.312Z,5.30
2023-01-07T11:01:54.724Z,5.50
2023-01-07T11:05:00.206Z,4.97
2023-01-07T11:08:04.720Z,5.57
2023-01-07T11:11:13.973Z,5.43
2023-01-07T11:14:22.952Z,4.93
2023-01-07T11:17:32.842Z,5.30
2023-01-07T11:20:55.974Z,5.40
2023-01-07T11:23:58.903Z,4.47
2023-01-07T11:27:13.921Z,4.60
2023-01-07T11:30:25.871Z,5.20
2023-01-07T11:34:01.426Z,4.97
2023-01-07T11:37:01.689Z,4.70
2023-01-07T11:40:20.441Z,4.90
2023-01-07T11:43:25.373Z,4.93
2023-01-07T11:46:31.544Z,4.47
2023-01-07T11:49:42.087Z,4.80
2023-01-07T11:52:58.254Z,4.67
2023-01-07T11:56:04.051Z,4.10
2023-01-07T11:59:31.583Z,4.13
2023-01-07T12:02:34.667Z,3.80
2023-01-07T12:05:38.089Z,5.10
2023-01-07T12:08:50.648Z,3.80
2023-01-07T12:11:54.859Z,4.00
2023-01-07T12:14:58.568Z,4.37
2023-01-07T12:18:42.972Z,4.00
2023-01-07T12:21:55.036Z,4.10
2023-01-07T12:25:31.816Z,4.03
2023-01-07T12:28:52.052Z,3.80
2023-01-07T12:32:14.319Z,4.40
2023-01-07T12:35:22.027Z,4.00
2023-01-07T12:38:28.780Z,4.10
2023-01-07T12:41:37.740Z,3.93
2023-01-07T12:44:45.519Z,4.20
2023-01-07T12:47:53.497Z,3.83
2023-01-07T12:51:00.835Z,4.10
2023-01-07T12:54:10.668Z,3.87
2023-01-07T12:57:20.533Z,4.33
2023-01-07T13:00:26.415Z,4.23
2023-01-07T13:03:47.167Z,4.50
2023-01-07T13:06:54.757Z,4.90
2023-01-07T13:10:02.517Z,4.20
2023-01-07T13:13:14.897Z,4.47
2023-01-07T13:16:18.020Z,4.13
2023-01-07T13:19:21.047Z,4.87
2023-01-07T13:22:32.321Z,4.60
2023-01-07T13:25:48.581Z,4.30
2023-01-07T13:29:08.717Z,5.13
2023-01-07T13:32:33.567Z,4.90
2023-01-07T13:35:58.948Z,5.23
2023-01-07T13:39:23.726Z,5.03
2023-01-07T13:42:37.082Z,9.03
2023-01-07T13:45:47.672Z,4.80
2023-01-07T13:48:51.941Z,4.27
2023-01-07T13:51:55.579Z,4.10
2023-01-07T13:55:01.351Z,4.10
2023-01-07T13:58:19.686Z,5.10
2023-01-07T14:01:25.666Z,4.80
2023-01-07T14:04:36.680Z,4.70
2023-01-07T14:07:46.776Z,4.57
2023-01-07T14:10:54.291Z,4.67
2023-01-07T14:14:05.120Z,4.80
2023-01-07T14:17:20.241Z,4.17
2023-01-07T14:20:30.618Z,3.97
2023-01-07T14:23:40.141Z,4.37
2023-01-07T14:26:53.259Z,5.03
2023-01-07T14:30:02.932Z,5.30
2023-01-07T14:33:21.440Z,4.90
2023-01-07T14:36:24.634Z,4.80
2023-01-07T14:39:35.494Z,4.30
2023-01-07T14:42:43.937Z,5.13
2023-01-07T14:45:57.238Z,4.40
2023-01-07T14:49:38.939Z,5.73
2023-01-07T14:53:12.053Z,8.43
2023-01-07T14:56:34.687Z,10.10
2023-01-07T15:00:04.739Z,10.70
2023-01-07T15:03:47.065Z,11.73
2023-01-07T15:06:56.008Z,12.63
2023-01-07T15:10:19.909Z,11.80
2023-01-07T15:13:40.670Z,10.17
2023-01-07T15:16:46.730Z,11.13
2023-01-07T15:19:49.888Z,10.63
2023-01-07T15:23:09.643Z,12.77
2023-01-07T15:26:18.580Z,13.30
2023-01-07T15:29:28.383Z,13.90
2023-01-07T15:32:41.163Z,13.80
2023-01-07T15:35:45.473Z,15.40
2023-01-07T15:38:53.672Z,12.63
2023-01-07T15:41:58.569Z,13.77
2023-01-07T15:45:01.757Z,12.67
2023-01-07T15:48:12.363Z,12.83
2023-01-07T15:51:16.830Z,11.80
2023-01-07T15:54:26.348Z,13.53
2023-01-07T15:57:34.489Z,13.23
2023-01-07T16:00:37.701Z,11.43
2023-01-07T16:03:44.500Z,9.53
2023-01-07T16:06:47.452Z,8.37
2023-01-07T16:09:52.532Z,8.40
2023-01-07T16:12:57.006Z,7.43
2023-01-07T16:16:03.120Z,6.40
2023-01-07T16:19:06.450Z,5.83
2023-01-07T16:22:14.475Z,6.37
2023-01-07T16:25:24.368Z,5.63
2023-01-07T16:28:30.097Z,6.37
2023-01-07T16:31:35.270Z,6.57
2023-01-07T16:35:00.167Z,6.20
2023-01-07T16:38:03.611Z,5.73
2023-01-07T16:41:08.418Z,11.43
2023-01-07T16:44:57.408Z,6.20
2023-01-07T16:48:22.399Z,6.30
2023-01-07T16:51:40.909Z,6.87
2023-01-07T16:54:44.581Z,7.70
2023-01-07T16:57:49.000Z,7.10
2023-01-07T17:00:53.390Z,8.50
2023-01-07T17:03:59.387Z,8.37
2023-01-07T17:07:02.904Z,7.70
2023-01-07T17:10:06.769Z,8.33
2023-01-07T17:13:33.308Z,6.93
2023-01-07T17:16:43.666Z,6.90
2023-01-07T17:19:50.748Z,7.13
2023-01-07T17:22:53.625Z,7.83
2023-01-07T17:25:57.910Z,9.53
2023-01-07T17:29:11.069Z,7.93
2023-01-07T17:32:14.970Z,9.70
2023-01-07T17:35:19.985Z,8.83
2023-01-07T17:38:22.950Z,8.03
2023-01-07T17:41:43.117Z,10.00
2023-01-07T17:44:48.582Z,10.57
2023-01-07T17:47:52.768Z,10.00
2023-01-07T17:50:57.170Z,12.37
2023-01-07T17:54:00.383Z,11.73
2023-01-07T17:57:03.320Z,10.20
2023-01-07T18:00:13.890Z,9.97
2023-01-07T18:03:16.797Z,9.97
2023-01-07T18:06:21.361Z,8.87
2023-01-07T18:09:24.326Z,7.73
2023-01-07T18:12:34.397Z,7.67
2023-01-07T18:15:38.686Z,7.77
2023-01-07T18:18:41.729Z,10.37
2023-01-07T18:21:44.716Z,8.90
2023-01-07T18:24:47.915Z,8.10
2023-01-07T18:27:53.248Z,8.10
2023-01-07T18:30:57.578Z,8.07
2023-01-07T18:34:00.528Z,8.43
2023-01-07T18:37:04.323Z,7.87
2023-01-07T18:40:09.323Z,7.37
2023-01-07T18:43:14.152Z,7.30
2023-01-07T18:46:18.503Z,7.40
2023-01-07T18:49:21.489Z,7.70
2023-01-07T18:52:24.487Z,9.40
2023-01-07T18:55:29.388Z,8.17
2023-01-07T18:58:32.329Z,7.90
2023-01-07T19:01:36.782Z,7.93
2023-01-07T19:04:41.454Z,6.97
2023-01-07T19:07:44.381Z,6.80
2023-01-07T19:10:49.542Z,8.03
2023-01-07T19:13:52.498Z,7.50
2023-01-07T19:16:56.970Z,8.00
2023-01-07T19:19:59.992Z,6.87
2023-01-07T19:23:02.952Z,6.87
2023-01-07T19:26:08.218Z,6.83
2023-01-07T19:29:13.919Z,7.63
2023-01-07T19:32:18.489Z,7.10
2023-01-07T19:35:21.754Z,6.80
2023-01-07T19:38:24.768Z,7.13
2023-01-07T19:41:28.279Z,7.40
2023-01-07T19:44:31.305Z,7.00
2023-01-07T19:47:36.267Z,6.87
2023-01-07T19:50:39.187Z,6.57
2023-01-07T19:53:42.213Z,6.67
2023-01-07T19:56:45.843Z,7.00
2023-01-07T19:59:48.770Z,7.20
2023-01-07T20:02:53.192Z,6.67
2023-01-07T20:05:56.171Z,7.30
2023-01-07T20:08:59.605Z,7.50
2023-01-07T20:12:02.841Z,7.70
2023-01-07T20:15:06.491Z,8.30
2023-01-07T20:18:12.288Z,7.87
2023-01-07T20:21:17.537Z,8.03
2023-01-07T20:24:20.544Z,8.83
2023-01-07T20:27:23.561Z,9.97
2023-01-07T20:30:26.519Z,10.03
2023-01-07T20:33:31.051Z,9.80
2023-01-07T20:36:34.206Z,9.57
2023-01-07T20:39:37.258Z,10.57
2023-01-07T20:42:40.186Z,10.70
2023-01-07T20:45:43.297Z,10.00
2023-01-07T20:48:47.912Z,8.47
2023-01-07T20:51:51.150Z,8.40
2023-01-07T20:54:54.138Z,8.73
2023-01-07T20:57:57.160Z,8.07
2023-01-07T21:01:03.517Z,8.03
2023-01-07T21:04:08.025Z,8.90
2023-01-07T21:07:11.343Z,9.17
2023-01-07T21:10:14.483Z,8.90
2023-01-07T21:13:17.532Z,8.90
2023-01-07T21:16:20.700Z,9.27
2023-01-07T21:19:25.186Z,9.80
2023-01-07T21:22:28.421Z,8.77
2023-01-07T21:25:31.403Z,7.70
2023-01-07T21:28:35.178Z,8.03
2023-01-07T21:31:38.269Z,8.80
2023-01-07T21:34:42.748Z,7.83
2023-01-07T21:37:45.842Z,9.37
2023-01-07T21:40:48.928Z,8.20
2023-01-07T21:43:52.443Z,8.50
2023-01-07T21:46:55.483Z,9.27
2023-01-07T21:50:00.468Z,11.67
2023-01-07T21:53:03.491Z,10.03
2023-01-07T21:56:07.562Z,8.40
2023-01-07T21:59:10.979Z,8.27
2023-01-07T22:02:17.586Z,8.20
2023-01-07T22:05:21.985Z,8.60
2023-01-07T22:08:25.387Z,9.17
2023-01-07T22:11:29.261Z,10.33
2023-01-07T22:14:32.455Z,8.57
2023-01-07T22:17:35.495Z,7.63
2023-01-07T22:20:40.242Z,7.50
2023-01-07T22:23:44.930Z,7.80
2023-01-07T22:26:48.095Z,7.40
2023-01-07T22:29:51.137Z,7.53
2023-01-07T22:32:54.154Z,7.53
2023-01-07T22:36:00.336Z,6.83
2023-01-07T22:39:05.991Z,6.73
2023-01-07T22:42:14.417Z,6.80
2023-01-07T22:45:22.072Z,6.63
2023-01-07T22:48:27.916Z,7.20
2023-01-07T22:51:38.657Z,7.30
2023-01-07T22:54:41.925Z,6.80
2023-01-07T22:57:44.948Z,7.73
2023-01-07T23:01:08.313Z,7.60
2023-01-07T23:04:11.399Z,7.53
2023-01-07T23:07:15.860Z,7.47
2023-01-07T23:10:18.890Z,6.87
2023-01-07T23:13:21.894Z,6.93
2023-01-07T23:16:24.972Z,7.00
2023-01-07T23:19:28.057Z,6.93
2023-01-07T23:22:32.663Z,7.17
2023-01-07T23:25:36.708Z,7.70
2023-01-07T23:28:39.687Z,8.33
2023-01-07T23:31:42.763Z,7.73
2023-01-07T23:34:45.867Z,8.10
2023-01-07T23:37:50.247Z,8.97
2023-01-07T23:41:01.026Z,8.60
2023-01-07T23:44:04.049Z,8.97
2023-01-07T23:47:07.261Z,7.50
2023-01-07T23:50:10.590Z,8.23
2023-01-07T23:53:14.967Z,8.83
2023-01-07T23:56:19.924Z,9.03
2023-01-07T23:59:22.941Z,8.07
